sensor_id;sensor_type;location;lat;lon;timestamp;P1;durP1;ratioP1;P2;durP2;ratioP2
21426;SDS011;10874;49.452;11.050;2022-07-22T00:00:24;7.00;;;6.40;;
21426;SDS011;10874;49.452;11.050;2022-07-22T00:02:51;9.13;;;7.43;;
21426;SDS011;10874;49.452;11.050;2022-07-22T00:05:18;7.37;;;6.77;;
21426;SDS011;10874;49.452;11.050;2022-07-22T00:07:45;6.97;;;6.33;;
21426;SDS011;10874;49.452;11.050;2022-07-22T00:10:12;7.63;;;6.83;;
21426;SDS011;10874;49.452;11.050;2022-07-22T00:12:39;7.43;;;6.73;;
21426;SDS011;10874;49.452;11.050;2022-07-22T00:15:06;7.93;;;7.23;;
21426;SDS011;10874;49.452;11.050;2022-07-22T00:17:34;7.57;;;6.87;;
21426;SDS011;10874;49.452;11.050;2022-07-22T00:20:03;7.07;;;6.47;;
21426;SDS011;10874;49.452;11.050;2022-07-22T00:22:30;7.83;;;7.13;;
21426;SDS011;10874;49.452;11.050;2022-07-22T00:24:57;7.70;;;6.90;;
21426;SDS011;10874;49.452;11.050;2022-07-22T00:27:25;8.70;;;7.33;;
21426;SDS011;10874;49.452;11.050;2022-07-22T00:29:52;8.20;;;7.43;;
21426;SDS011;10874;49.452;11.050;2022-07-22T00:32:18;7.60;;;6.80;;
21426;SDS011;10874;49.452;11.050;2022-07-22T00:34:47;8.33;;;7.33;;
21426;SDS011;10874;49.452;11.050;2022-07-22T00:37:14;8.03;;;7.03;;
21426;SDS011;10874;49.452;11.050;2022-07-22T00:39:41;7.53;;;6.93;;
21426;SDS011;10874;49.452;11.050;2022-07-22T00:42:08;7.87;;;7.07;;
21426;SDS011;10874;49.452;11.050;2022-07-22T00:44:35;7.17;;;6.60;;
21426;SDS011;10874;49.452;11.050;2022-07-22T00:47:05;8.20;;;7.50;;
21426;SDS011;10874;49.452;11.050;2022-07-22T00:49:32;8.90;;;7.60;;
21426;SDS011;10874;49.452;11.050;2022-07-22T00:51:59;8.27;;;7.50;;
21426;SDS011;10874;49.452;11.050;2022-07-22T00:54:27;7.43;;;6.83;;
21426;SDS011;10874;49.452;11.050;2022-07-22T00:56:54;8.30;;;7.47;;
21426;SDS011;10874;49.452;11.050;2022-07-22T00:59:21;8.27;;;7.47;;
21426;SDS011;10874;49.452;11.050;2022-07-22T01:01:48;8.50;;;7.57;;
21426;SDS011;10874;49.452;11.050;2022-07-22T01:04:15;8.63;;;7.83;;
21426;SDS011;10874;49.452;11.050;2022-07-22T01:06:43;8.53;;;7.73;;
21426;SDS011;10874;49.452;11.050;2022-07-22T01:09:13;7.83;;;7.23;;
21426;SDS011;10874;49.452;11.050;2022-07-22T01:11:40;8.50;;;7.70;;
21426;SDS011;10874;49.452;11.050;2022-07-22T01:14:07;8.23;;;7.17;;
21426;SDS011;10874;49.452;11.050;2022-07-22T01:16:34;7.87;;;7.07;;
21426;SDS011;10874;49.452;11.050;2022-07-22T01:19:03;7.90;;;7.13;;
21426;SDS011;10874;49.452;11.050;2022-07-22T01:21:30;8.53;;;7.50;;
21426;SDS011;10874;49.452;11.050;2022-07-22T01:23:57;8.20;;;7.40;;
21426;SDS011;10874;49.452;11.050;2022-07-22T01:26:25;8.17;;;7.47;;
21426;SDS011;10874;49.452;11.050;2022-07-22T01:28:52;8.10;;;7.40;;
21426;SDS011;10874;49.452;11.050;2022-07-22T01:31:20;7.97;;;7.27;;
21426;SDS011;10874;49.452;11.050;2022-07-22T01:33:47;7.80;;;7.10;;
21426;SDS011;10874;49.452;11.050;2022-07-22T01:36:14;8.17;;;7.37;;
21426;SDS011;10874;49.452;11.050;2022-07-22T01:38:41;7.70;;;7.00;;
21426;SDS011;10874;49.452;11.050;2022-07-22T01:41:08;8.53;;;7.77;;
21426;SDS011;10874;49.452;11.050;2022-07-22T01:43:36;8.33;;;7.63;;
21426;SDS011;10874;49.452;11.050;2022-07-22T01:46:04;8.20;;;7.47;;
21426;SDS011;10874;49.452;11.050;2022-07-22T01:48:33;8.53;;;7.67;;
21426;SDS011;10874;49.452;11.050;2022-07-22T01:51:01;8.20;;;7.47;;
21426;SDS011;10874;49.452;11.050;2022-07-22T01:53:27;8.93;;;8.03;;
21426;SDS011;10874;49.452;11.050;2022-07-22T01:55:54;8.83;;;7.93;;
21426;SDS011;10874;49.452;11.050;2022-07-22T01:58:22;8.80;;;7.43;;
21426;SDS011;10874;49.452;11.050;2022-07-22T02:00:56;9.13;;;7.87;;
21426;SDS011;10874;49.452;11.050;2022-07-22T02:03:23;8.23;;;7.43;;
21426;SDS011;10874;49.452;11.050;2022-07-22T02:05:51;7.93;;;7.23;;
21426;SDS011;10874;49.452;11.050;2022-07-22T02:08:23;7.90;;;7.17;;
21426;SDS011;10874;49.452;11.050;2022-07-22T02:11:08;8.53;;;7.80;;
21426;SDS011;10874;49.452;11.050;2022-07-22T02:13:43;8.30;;;7.57;;
21426;SDS011;10874;49.452;11.050;2022-07-22T02:16:10;8.70;;;7.90;;
21426;SDS011;10874;49.452;11.050;2022-07-22T02:18:45;9.03;;;8.23;;
21426;SDS011;10874;49.452;11.050;2022-07-22T02:21:12;8.73;;;7.93;;
21426;SDS011;10874;49.452;11.050;2022-07-22T02:23:39;9.10;;;8.20;;
21426;SDS011;10874;49.452;11.050;2022-07-22T02:26:06;9.10;;;8.13;;
21426;SDS011;10874;49.452;11.050;2022-07-22T02:28:33;9.73;;;8.73;;
21426;SDS011;10874;49.452;11.050;2022-07-22T02:31:00;9.03;;;8.23;;
21426;SDS011;10874;49.452;11.050;2022-07-22T02:33:27;8.77;;;7.93;;
21426;SDS011;10874;49.452;11.050;2022-07-22T02:35:58;8.83;;;8.10;;
21426;SDS011;10874;49.452;11.050;2022-07-22T02:38:26;8.87;;;8.03;;
21426;SDS011;10874;49.452;11.050;2022-07-22T02:40:53;8.23;;;7.53;;
21426;SDS011;10874;49.452;11.050;2022-07-22T02:43:20;9.20;;;8.40;;
21426;SDS011;10874;49.452;11.050;2022-07-22T02:45:48;9.43;;;7.93;;
21426;SDS011;10874;49.452;11.050;2022-07-22T02:48:15;9.23;;;8.40;;
21426;SDS011;10874;49.452;11.050;2022-07-22T02:50:46;9.83;;;8.60;;
21426;SDS011;10874;49.452;11.050;2022-07-22T02:53:18;9.13;;;8.33;;
21426;SDS011;10874;49.452;11.050;2022-07-22T02:55:45;9.00;;;8.10;;
21426;SDS011;10874;49.452;11.050;2022-07-22T02:58:12;9.10;;;8.23;;
21426;SDS011;10874;49.452;11.050;2022-07-22T03:00:41;9.07;;;8.27;;
21426;SDS011;10874;49.452;11.050;2022-07-22T03:03:08;9.83;;;8.77;;
21426;SDS011;10874;49.452;11.050;2022-07-22T03:05:35;9.40;;;8.50;;
21426;SDS011;10874;49.452;11.050;2022-07-22T03:08:40;9.07;;;8.20;;
21426;SDS011;10874;49.452;11.050;2022-07-22T03:11:08;8.93;;;8.10;;
21426;SDS011;10874;49.452;11.050;2022-07-22T03:13:35;10.23;;;8.50;;
21426;SDS011;10874;49.452;11.050;2022-07-22T03:16:02;8.70;;;7.90;;
21426;SDS011;10874;49.452;11.050;2022-07-22T03:18:29;13.03;;;8.60;;
21426;SDS011;10874;49.452;11.050;2022-07-22T03:20:56;10.03;;;8.03;;
21426;SDS011;10874;49.452;11.050;2022-07-22T03:23:23;8.73;;;7.93;;
21426;SDS011;10874;49.452;11.050;2022-07-22T03:25:50;9.10;;;8.20;;
21426;SDS011;10874;49.452;11.050;2022-07-22T03:28:17;9.63;;;8.73;;
21426;SDS011;10874;49.452;11.050;2022-07-22T03:30:44;9.10;;;8.30;;
21426;SDS011;10874;49.452;11.050;2022-07-22T03:33:12;8.60;;;7.80;;
21426;SDS011;10874;49.452;11.050;2022-07-22T03:35:39;9.33;;;8.53;;
21426;SDS011;10874;49.452;11.050;2022-07-22T03:38:07;10.13;;;9.20;;
21426;SDS011;10874;49.452;11.050;2022-07-22T03:40:35;9.37;;;8.57;;
21426;SDS011;10874;49.452;11.050;2022-07-22T03:43:03;9.80;;;9.00;;
21426;SDS011;10874;49.452;11.050;2022-07-22T03:45:31;10.10;;;9.10;;
21426;SDS011;10874;49.452;11.050;2022-07-22T03:47:58;9.50;;;8.70;;
21426;SDS011;10874;49.452;11.050;2022-07-22T03:50:28;9.63;;;8.63;;
21426;SDS011;10874;49.452;11.050;2022-07-22T03:52:55;10.10;;;9.20;;
21426;SDS011;10874;49.452;11.050;2022-07-22T03:55:22;9.20;;;8.50;;
21426;SDS011;10874;49.452;11.050;2022-07-22T03:57:53;9.30;;;8.50;;
21426;SDS011;10874;49.452;11.050;2022-07-22T04:00:27;9.83;;;8.93;;
21426;SDS011;10874;49.452;11.050;2022-07-22T04:02:54;10.23;;;9.30;;
21426;SDS011;10874;49.452;11.050;2022-07-22T04:05:46;10.30;;;9.00;;
21426;SDS011;10874;49.452;11.050;2022-07-22T04:08:18;9.67;;;8.77;;
21426;SDS011;10874;49.452;11.050;2022-07-22T04:10:46;9.60;;;8.73;;
21426;SDS011;10874;49.452;11.050;2022-07-22T04:13:13;9.60;;;8.63;;
21426;SDS011;10874;49.452;11.050;2022-07-22T04:15:46;10.13;;;9.10;;
21426;SDS011;10874;49.452;11.050;2022-07-22T04:18:13;9.90;;;9.00;;
21426;SDS011;10874;49.452;11.050;2022-07-22T04:20:40;9.67;;;8.77;;
21426;SDS011;10874;49.452;11.050;2022-07-22T04:23:39;8.93;;;8.17;;
21426;SDS011;10874;49.452;11.050;2022-07-22T04:26:13;9.50;;;8.60;;
21426;SDS011;10874;49.452;11.050;2022-07-22T04:28:40;10.27;;;8.60;;
21426;SDS011;10874;49.452;11.050;2022-07-22T04:31:07;8.70;;;7.80;;
21426;SDS011;10874;49.452;11.050;2022-07-22T04:33:37;10.07;;;9.07;;
21426;SDS011;10874;49.452;11.050;2022-07-22T04:36:04;9.23;;;8.43;;
21426;SDS011;10874;49.452;11.050;2022-07-22T04:38:31;9.53;;;8.40;;
21426;SDS011;10874;49.452;11.050;2022-07-22T04:41:02;9.23;;;8.33;;
21426;SDS011;10874;49.452;11.050;2022-07-22T04:43:29;9.40;;;8.57;;
21426;SDS011;10874;49.452;11.050;2022-07-22T04:45:56;9.97;;;8.37;;
21426;SDS011;10874;49.452;11.050;2022-07-22T04:48:25;9.77;;;8.87;;
21426;SDS011;10874;49.452;11.050;2022-07-22T04:50:53;9.80;;;8.80;;
21426;SDS011;10874;49.452;11.050;2022-07-22T04:53:20;8.80;;;8.00;;
21426;SDS011;10874;49.452;11.050;2022-07-22T04:56:07;9.77;;;8.77;;
21426;SDS011;10874;49.452;11.050;2022-07-22T04:58:34;9.83;;;8.93;;
21426;SDS011;10874;49.452;11.050;2022-07-22T05:01:01;11.27;;;8.93;;
21426;SDS011;10874;49.452;11.050;2022-07-22T05:03:28;9.43;;;8.00;;
21426;SDS011;10874;49.452;11.050;2022-07-22T05:05:55;9.37;;;8.50;;
21426;SDS011;10874;49.452;11.050;2022-07-22T05:08:35;8.63;;;7.90;;
21426;SDS011;10874;49.452;11.050;2022-07-22T05:11:02;8.87;;;8.07;;
21426;SDS011;10874;49.452;11.050;2022-07-22T05:13:29;8.37;;;7.70;;
21426;SDS011;10874;49.452;11.050;2022-07-22T05:15:56;8.88;;;7.53;;
21426;SDS011;10874;49.452;11.050;2022-07-22T05:18:23;8.52;;;7.72;;
21426;SDS011;10874;49.452;11.050;2022-07-22T05:20:50;8.90;;;8.02;;
21426;SDS011;10874;49.452;11.050;2022-07-22T05:23:17;8.85;;;8.00;;
21426;SDS011;10874;49.452;11.050;2022-07-22T05:25:44;7.97;;;7.20;;
21426;SDS011;10874;49.452;11.050;2022-07-22T05:28:11;8.15;;;7.40;;
21426;SDS011;10874;49.452;11.050;2022-07-22T05:30:41;8.50;;;7.80;;
21426;SDS011;10874;49.452;11.050;2022-07-22T05:33:09;8.15;;;7.45;;
21426;SDS011;10874;49.452;11.050;2022-07-22T05:35:56;8.50;;;7.70;;
21426;SDS011;10874;49.452;11.050;2022-07-22T05:38:27;9.52;;;8.73;;
21426;SDS011;10874;49.452;11.050;2022-07-22T05:40:54;9.88;;;8.88;;
21426;SDS011;10874;49.452;11.050;2022-07-22T05:43:20;9.77;;;8.82;;
21426;SDS011;10874;49.452;11.050;2022-07-22T05:45:47;9.23;;;8.43;;
21426;SDS011;10874;49.452;11.050;2022-07-22T05:48:14;9.40;;;8.10;;
21426;SDS011;10874;49.452;11.050;2022-07-22T05:50:41;7.93;;;7.22;;
21426;SDS011;10874;49.452;11.050;2022-07-22T05:53:08;8.90;;;7.45;;
21426;SDS011;10874;49.452;11.050;2022-07-22T05:55:36;9.05;;;8.25;;
21426;SDS011;10874;49.452;11.050;2022-07-22T05:58:03;8.50;;;7.72;;
21426;SDS011;10874;49.452;11.050;2022-07-22T06:00:30;8.27;;;7.53;;
21426;SDS011;10874;49.452;11.050;2022-07-22T06:02:58;8.57;;;7.75;;
21426;SDS011;10874;49.452;11.050;2022-07-22T06:05:24;8.70;;;7.80;;
21426;SDS011;10874;49.452;11.050;2022-07-22T06:08:05;7.47;;;6.43;;
21426;SDS011;10874;49.452;11.050;2022-07-22T06:10:43;8.27;;;7.22;;
21426;SDS011;10874;49.452;11.050;2022-07-22T06:13:10;7.97;;;6.95;;
21426;SDS011;10874;49.452;11.050;2022-07-22T06:15:39;8.48;;;7.22;;
21426;SDS011;10874;49.452;11.050;2022-07-22T06:18:06;9.52;;;8.63;;
21426;SDS011;10874;49.452;11.050;2022-07-22T06:20:33;9.45;;;7.25;;
21426;SDS011;10874;49.452;11.050;2022-07-22T06:23:00;9.98;;;6.80;;
21426;SDS011;10874;49.452;11.050;2022-07-22T06:25:28;10.67;;;8.00;;
21426;SDS011;10874;49.452;11.050;2022-07-22T06:28:13;11.60;;;7.93;;
21426;SDS011;10874;49.452;11.050;2022-07-22T06:30:39;10.03;;;7.67;;
21426;SDS011;10874;49.452;11.050;2022-07-22T06:33:07;8.63;;;7.80;;
21426;SDS011;10874;49.452;11.050;2022-07-22T06:35:37;7.80;;;7.10;;
21426;SDS011;10874;49.452;11.050;2022-07-22T06:38:04;8.83;;;8.13;;
21426;SDS011;10874;49.452;11.050;2022-07-22T06:40:50;8.60;;;7.80;;
21426;SDS011;10874;49.452;11.050;2022-07-22T06:43:44;10.00;;;9.00;;
21426;SDS011;10874;49.452;11.050;2022-07-22T06:46:30;9.60;;;8.70;;
21426;SDS011;10874;49.452;11.050;2022-07-22T06:48:57;9.73;;;8.93;;
21426;SDS011;10874;49.452;11.050;2022-07-22T06:51:27;8.90;;;8.20;;
21426;SDS011;10874;49.452;11.050;2022-07-22T06:53:55;13.37;;;8.90;;
21426;SDS011;10874;49.452;11.050;2022-07-22T06:56:22;9.73;;;8.70;;
21426;SDS011;10874;49.452;11.050;2022-07-22T06:58:50;10.33;;;9.40;;
21426;SDS011;10874;49.452;11.050;2022-07-22T07:01:17;9.27;;;8.37;;
21426;SDS011;10874;49.452;11.050;2022-07-22T07:03:55;9.53;;;8.43;;
21426;SDS011;10874;49.452;11.050;2022-07-22T07:06:23;9.53;;;7.93;;
21426;SDS011;10874;49.452;11.050;2022-07-22T07:09:12;9.03;;;8.13;;
21426;SDS011;10874;49.452;11.050;2022-07-22T07:11:41;9.23;;;8.33;;
21426;SDS011;10874;49.452;11.050;2022-07-22T07:14:15;8.83;;;7.93;;
21426;SDS011;10874;49.452;11.050;2022-07-22T07:16:42;8.50;;;7.70;;
21426;SDS011;10874;49.452;11.050;2022-07-22T07:19:10;8.90;;;8.00;;
21426;SDS011;10874;49.452;11.050;2022-07-22T07:21:37;9.40;;;8.53;;
21426;SDS011;10874;49.452;11.050;2022-07-22T07:24:04;9.90;;;7.93;;
21426;SDS011;10874;49.452;11.050;2022-07-22T07:26:32;8.67;;;7.87;;
21426;SDS011;10874;49.452;11.050;2022-07-22T07:29:00;9.27;;;8.47;;
21426;SDS011;10874;49.452;11.050;2022-07-22T07:31:31;10.50;;;8.37;;
21426;SDS011;10874;49.452;11.050;2022-07-22T07:34:03;9.23;;;8.23;;
21426;SDS011;10874;49.452;11.050;2022-07-22T07:36:30;9.17;;;8.37;;
21426;SDS011;10874;49.452;11.050;2022-07-22T07:38:57;9.23;;;8.40;;
21426;SDS011;10874;49.452;11.050;2022-07-22T07:41:25;9.67;;;7.97;;
21426;SDS011;10874;49.452;11.050;2022-07-22T07:43:52;8.37;;;7.47;;
21426;SDS011;10874;49.452;11.050;2022-07-22T07:46:19;9.20;;;8.30;;
21426;SDS011;10874;49.452;11.050;2022-07-22T07:48:46;8.70;;;7.90;;
21426;SDS011;10874;49.452;11.050;2022-07-22T07:51:15;8.83;;;7.93;;
21426;SDS011;10874;49.452;11.050;2022-07-22T07:53:42;8.47;;;7.67;;
21426;SDS011;10874;49.452;11.050;2022-07-22T07:56:10;9.67;;;7.30;;
21426;SDS011;10874;49.452;11.050;2022-07-22T07:58:38;8.23;;;7.40;;
21426;SDS011;10874;49.452;11.050;2022-07-22T08:01:06;9.27;;;8.47;;
21426;SDS011;10874;49.452;11.050;2022-07-22T08:03:35;8.37;;;7.57;;
21426;SDS011;10874;49.452;11.050;2022-07-22T08:06:03;9.67;;;8.60;;
21426;SDS011;10874;49.452;11.050;2022-07-22T08:08:30;9.10;;;8.30;;
21426;SDS011;10874;49.452;11.050;2022-07-22T08:11:03;9.10;;;8.17;;
21426;SDS011;10874;49.452;11.050;2022-07-22T08:13:49;7.80;;;6.93;;
21426;SDS011;10874;49.452;11.050;2022-07-22T08:16:36;9.17;;;8.37;;
21426;SDS011;10874;49.452;11.050;2022-07-22T08:19:04;7.93;;;7.20;;
21426;SDS011;10874;49.452;11.050;2022-07-22T08:21:31;9.57;;;8.13;;
21426;SDS011;10874;49.452;11.050;2022-07-22T08:24:00;9.40;;;8.40;;
21426;SDS011;10874;49.452;11.050;2022-07-22T08:26:27;8.50;;;7.70;;
21426;SDS011;10874;49.452;11.050;2022-07-22T08:28:58;8.73;;;7.30;;
21426;SDS011;10874;49.452;11.050;2022-07-22T08:31:28;8.67;;;7.83;;
21426;SDS011;10874;49.452;11.050;2022-07-22T08:33:57;8.40;;;7.60;;
21426;SDS011;10874;49.452;11.050;2022-07-22T08:36:27;8.00;;;7.13;;
21426;SDS011;10874;49.452;11.050;2022-07-22T08:38:54;8.47;;;7.60;;
21426;SDS011;10874;49.452;11.050;2022-07-22T08:41:22;9.73;;;7.53;;
21426;SDS011;10874;49.452;11.050;2022-07-22T08:43:49;8.30;;;7.60;;
21426;SDS011;10874;49.452;11.050;2022-07-22T08:46:17;9.37;;;8.50;;
21426;SDS011;10874;49.452;11.050;2022-07-22T08:49:02;8.37;;;7.57;;
21426;SDS011;10874;49.452;11.050;2022-07-22T08:51:48;8.17;;;7.47;;
21426;SDS011;10874;49.452;11.050;2022-07-22T08:54:20;9.17;;;7.90;;
21426;SDS011;10874;49.452;11.050;2022-07-22T08:56:48;7.70;;;7.00;;
21426;SDS011;10874;49.452;11.050;2022-07-22T08:59:15;9.27;;;7.57;;
21426;SDS011;10874;49.452;11.050;2022-07-22T09:02:01;8.77;;;7.80;;
21426;SDS011;10874;49.452;11.050;2022-07-22T09:04:29;8.60;;;7.90;;
21426;SDS011;10874;49.452;11.050;2022-07-22T09:06:56;8.40;;;7.70;;
21426;SDS011;10874;49.452;11.050;2022-07-22T09:09:33;8.33;;;7.53;;
21426;SDS011;10874;49.452;11.050;2022-07-22T09:12:19;9.10;;;7.50;;
21426;SDS011;10874;49.452;11.050;2022-07-22T09:14:51;9.83;;;7.03;;
21426;SDS011;10874;49.452;11.050;2022-07-22T09:17:38;7.70;;;6.60;;
21426;SDS011;10874;49.452;11.050;2022-07-22T09:20:38;8.73;;;7.87;;
21426;SDS011;10874;49.452;11.050;2022-07-22T09:23:24;8.37;;;7.63;;
21426;SDS011;10874;49.452;11.050;2022-07-22T09:25:53;9.13;;;7.83;;
21426;SDS011;10874;49.452;11.050;2022-07-22T09:28:54;7.73;;;7.03;;
21426;SDS011;10874;49.452;11.050;2022-07-22T09:31:28;9.13;;;7.63;;
21426;SDS011;10874;49.452;11.050;2022-07-22T09:34:25;9.10;;;6.53;;
21426;SDS011;10874;49.452;11.050;2022-07-22T09:36:56;7.87;;;7.07;;
21426;SDS011;10874;49.452;11.050;2022-07-22T09:39:25;8.07;;;7.47;;
21426;SDS011;10874;49.452;11.050;2022-07-22T09:41:59;7.73;;;7.13;;
21426;SDS011;10874;49.452;11.050;2022-07-22T09:44:26;7.93;;;7.23;;
21426;SDS011;10874;49.452;11.050;2022-07-22T09:46:55;8.30;;;7.37;;
21426;SDS011;10874;49.452;11.050;2022-07-22T09:49:32;8.90;;;8.20;;
21426;SDS011;10874;49.452;11.050;2022-07-22T09:52:19;8.33;;;7.67;;
21426;SDS011;10874;49.452;11.050;2022-07-22T09:54:57;9.77;;;8.23;;
21426;SDS011;10874;49.452;11.050;2022-07-22T09:57:25;8.50;;;7.80;;
21426;SDS011;10874;49.452;11.050;2022-07-22T09:59:52;8.10;;;7.30;;
21426;SDS011;10874;49.452;11.050;2022-07-22T10:02:49;7.80;;;7.10;;
21426;SDS011;10874;49.452;11.050;2022-07-22T10:05:19;8.97;;;8.17;;
21426;SDS011;10874;49.452;11.050;2022-07-22T10:07:47;11.23;;;7.50;;
21426;SDS011;10874;49.452;11.050;2022-07-22T10:10:16;8.93;;;8.17;;
21426;SDS011;10874;49.452;11.050;2022-07-22T10:12:43;11.80;;;7.80;;
21426;SDS011;10874;49.452;11.050;2022-07-22T10:15:11;8.17;;;7.47;;
21426;SDS011;10874;49.452;11.050;2022-07-22T10:17:40;8.07;;;7.20;;
21426;SDS011;10874;49.452;11.050;2022-07-22T10:20:08;8.03;;;7.10;;
21426;SDS011;10874;49.452;11.050;2022-07-22T10:25:06;7.38;;;6.70;;
21426;SDS011;10874;49.452;11.050;2022-07-22T10:27:50;7.68;;;7.05;;
21426;SDS011;10874;49.452;11.050;2022-07-22T10:30:18;7.63;;;7.00;;
21426;SDS011;10874;49.452;11.050;2022-07-22T10:32:45;6.95;;;6.35;;
21426;SDS011;10874;49.452;11.050;2022-07-22T10:35:27;7.32;;;6.65;;
21426;SDS011;10874;49.452;11.050;2022-07-22T10:38:00;7.13;;;6.47;;
21426;SDS011;10874;49.452;11.050;2022-07-22T10:40:29;7.32;;;6.63;;
21426;SDS011;10874;49.452;11.050;2022-07-22T10:45:32;6.13;;;5.57;;
21426;SDS011;10874;49.452;11.050;2022-07-22T10:48:00;7.10;;;6.53;;
21426;SDS011;10874;49.452;11.050;2022-07-22T10:55:33;6.63;;;6.13;;
21426;SDS011;10874;49.452;11.050;2022-07-22T10:58:18;7.13;;;6.50;;
21426;SDS011;10874;49.452;11.050;2022-07-22T11:00:47;6.90;;;6.40;;
21426;SDS011;10874;49.452;11.050;2022-07-22T11:03:24;6.85;;;6.18;;
21426;SDS011;10874;49.452;11.050;2022-07-22T11:05:52;7.32;;;6.38;;
21426;SDS011;10874;49.452;11.050;2022-07-22T11:08:18;6.20;;;5.72;;
21426;SDS011;10874;49.452;11.050;2022-07-22T11:10:48;5.90;;;5.40;;
21426;SDS011;10874;49.452;11.050;2022-07-22T11:13:31;6.80;;;6.20;;
21426;SDS011;10874;49.452;11.050;2022-07-22T11:18:48;6.20;;;5.70;;
21426;SDS011;10874;49.452;11.050;2022-07-22T11:21:16;6.45;;;5.90;;
21426;SDS011;10874;49.452;11.050;2022-07-22T11:23:43;6.13;;;5.70;;
21426;SDS011;10874;49.452;11.050;2022-07-22T11:26:13;6.93;;;6.38;;
21426;SDS011;10874;49.452;11.050;2022-07-22T11:28:40;6.28;;;5.78;;
21426;SDS011;10874;49.452;11.050;2022-07-22T11:31:08;6.15;;;5.57;;
21426;SDS011;10874;49.452;11.050;2022-07-22T11:33:35;6.15;;;5.65;;
21426;SDS011;10874;49.452;11.050;2022-07-22T11:36:03;6.78;;;6.10;;
21426;SDS011;10874;49.452;11.050;2022-07-22T11:38:43;6.70;;;6.00;;
21426;SDS011;10874;49.452;11.050;2022-07-22T11:41:18;6.60;;;5.90;;
21426;SDS011;10874;49.452;11.050;2022-07-22T11:43:46;6.35;;;5.85;;
21426;SDS011;10874;49.452;11.050;2022-07-22T11:46:14;6.30;;;5.80;;
21426;SDS011;10874;49.452;11.050;2022-07-22T11:48:41;6.30;;;5.80;;
21426;SDS011;10874;49.452;11.050;2022-07-22T11:51:10;5.97;;;5.53;;
21426;SDS011;10874;49.452;11.050;2022-07-22T11:53:48;5.82;;;5.32;;
21426;SDS011;10874;49.452;11.050;2022-07-22T11:56:14;5.47;;;5.07;;
21426;SDS011;10874;49.452;11.050;2022-07-22T11:58:45;4.97;;;4.57;;
21426;SDS011;10874;49.452;11.050;2022-07-22T12:01:13;5.40;;;4.90;;
21426;SDS011;10874;49.452;11.050;2022-07-22T12:03:42;5.05;;;4.75;;
21426;SDS011;10874;49.452;11.050;2022-07-22T12:06:11;5.10;;;4.70;;
21426;SDS011;10874;49.452;11.050;2022-07-22T12:08:39;5.60;;;4.97;;
21426;SDS011;10874;49.452;11.050;2022-07-22T12:11:07;5.65;;;5.20;;
21426;SDS011;10874;49.452;11.050;2022-07-22T12:13:34;5.93;;;5.32;;
21426;SDS011;10874;49.452;11.050;2022-07-22T12:16:17;6.45;;;5.95;;
21426;SDS011;10874;49.452;11.050;2022-07-22T12:18:49;6.40;;;5.80;;
21426;SDS011;10874;49.452;11.050;2022-07-22T12:21:16;5.93;;;5.40;;
21426;SDS011;10874;49.452;11.050;2022-07-22T12:23:53;5.80;;;5.30;;
21426;SDS011;10874;49.452;11.050;2022-07-22T12:31:43;6.10;;;5.60;;
21426;SDS011;10874;49.452;11.050;2022-07-22T12:34:11;5.93;;;5.43;;
21426;SDS011;10874;49.452;11.050;2022-07-22T12:36:38;5.93;;;5.45;;
21426;SDS011;10874;49.452;11.050;2022-07-22T12:39:11;6.32;;;5.82;;
21426;SDS011;10874;49.452;11.050;2022-07-22T12:41:44;6.20;;;5.68;;
21426;SDS011;10874;49.452;11.050;2022-07-22T12:44:18;5.72;;;5.32;;
21426;SDS011;10874;49.452;11.050;2022-07-22T12:46:49;6.30;;;5.80;;
21426;SDS011;10874;49.452;11.050;2022-07-22T12:49:17;5.82;;;5.32;;
21426;SDS011;10874;49.452;11.050;2022-07-22T12:54:33;5.78;;;5.28;;
21426;SDS011;10874;49.452;11.050;2022-07-22T12:57:00;5.45;;;5.05;;
21426;SDS011;10874;49.452;11.050;2022-07-22T12:59:27;5.85;;;5.40;;
21426;SDS011;10874;49.452;11.050;2022-07-22T13:01:54;5.88;;;5.30;;
21426;SDS011;10874;49.452;11.050;2022-07-22T13:04:21;6.53;;;5.57;;
21426;SDS011;10874;49.452;11.050;2022-07-22T13:06:48;5.70;;;5.30;;
21426;SDS011;10874;49.452;11.050;2022-07-22T13:09:16;6.65;;;6.20;;
21426;SDS011;10874;49.452;11.050;2022-07-22T13:11:44;6.43;;;5.82;;
21426;SDS011;10874;49.452;11.050;2022-07-22T13:14:13;5.82;;;5.38;;
21426;SDS011;10874;49.452;11.050;2022-07-22T13:16:40;6.30;;;5.80;;
21426;SDS011;10874;49.452;11.050;2022-07-22T13:19:07;6.20;;;5.60;;
21426;SDS011;10874;49.452;11.050;2022-07-22T13:21:33;6.45;;;5.95;;
21426;SDS011;10874;49.452;11.050;2022-07-22T13:24:03;6.43;;;5.90;;
21426;SDS011;10874;49.452;11.050;2022-07-22T13:26:31;5.88;;;5.47;;
21426;SDS011;10874;49.452;11.050;2022-07-22T13:28:58;5.97;;;5.47;;
21426;SDS011;10874;49.452;11.050;2022-07-22T13:31:24;5.85;;;5.32;;
21426;SDS011;10874;49.452;11.050;2022-07-22T13:33:53;5.75;;;5.35;;
21426;SDS011;10874;49.452;11.050;2022-07-22T13:36:21;5.10;;;4.70;;
21426;SDS011;10874;49.452;11.050;2022-07-22T13:38:49;5.82;;;5.25;;
21426;SDS011;10874;49.452;11.050;2022-07-22T13:41:16;6.00;;;5.45;;
21426;SDS011;10874;49.452;11.050;2022-07-22T13:43:43;6.10;;;5.50;;
21426;SDS011;10874;49.452;11.050;2022-07-22T13:46:11;6.38;;;5.85;;
21426;SDS011;10874;49.452;11.050;2022-07-22T13:48:39;6.32;;;5.70;;
21426;SDS011;10874;49.452;11.050;2022-07-22T13:51:06;6.10;;;5.57;;
21426;SDS011;10874;49.452;11.050;2022-07-22T13:53:33;6.57;;;5.88;;
21426;SDS011;10874;49.452;11.050;2022-07-22T13:56:00;7.18;;;6.05;;
21426;SDS011;10874;49.452;11.050;2022-07-22T13:58:26;6.03;;;5.53;;
21426;SDS011;10874;49.452;11.050;2022-07-22T14:00:53;6.80;;;6.25;;
21426;SDS011;10874;49.452;11.050;2022-07-22T14:03:20;6.85;;;6.15;;
21426;SDS011;10874;49.452;11.050;2022-07-22T14:05:47;5.90;;;5.50;;
21426;SDS011;10874;49.452;11.050;2022-07-22T14:08:14;6.63;;;6.03;;
21426;SDS011;10874;49.452;11.050;2022-07-22T14:10:41;6.07;;;5.57;;
21426;SDS011;10874;49.452;11.050;2022-07-22T14:13:08;6.30;;;5.70;;
21426;SDS011;10874;49.452;11.050;2022-07-22T14:15:35;5.70;;;5.18;;
21426;SDS011;10874;49.452;11.050;2022-07-22T14:18:02;5.60;;;5.15;;
21426;SDS011;10874;49.452;11.050;2022-07-22T14:20:29;6.13;;;5.63;;
21426;SDS011;10874;49.452;11.050;2022-07-22T14:22:56;6.03;;;5.35;;
21426;SDS011;10874;49.452;11.050;2022-07-22T14:25:23;6.43;;;5.93;;
21426;SDS011;10874;49.452;11.050;2022-07-22T14:27:50;6.35;;;5.70;;
21426;SDS011;10874;49.452;11.050;2022-07-22T14:30:37;6.70;;;6.03;;
21426;SDS011;10874;49.452;11.050;2022-07-22T14:33:04;5.97;;;5.47;;
21426;SDS011;10874;49.452;11.050;2022-07-22T14:35:31;6.30;;;5.70;;
21426;SDS011;10874;49.452;11.050;2022-07-22T14:38:01;5.50;;;5.00;;
21426;SDS011;10874;49.452;11.050;2022-07-22T14:40:28;6.20;;;5.68;;
21426;SDS011;10874;49.452;11.050;2022-07-22T14:42:55;6.47;;;5.97;;
21426;SDS011;10874;49.452;11.050;2022-07-22T14:45:42;6.50;;;5.90;;
21426;SDS011;10874;49.452;11.050;2022-07-22T14:48:09;6.53;;;5.93;;
21426;SDS011;10874;49.452;11.050;2022-07-22T14:50:36;7.00;;;5.55;;
21426;SDS011;10874;49.452;11.050;2022-07-22T14:53:03;6.78;;;5.93;;
21426;SDS011;10874;49.452;11.050;2022-07-22T14:55:30;6.25;;;5.75;;
21426;SDS011;10874;49.452;11.050;2022-07-22T14:57:57;5.93;;;5.43;;
21426;SDS011;10874;49.452;11.050;2022-07-22T15:00:24;6.30;;;5.75;;
21426;SDS011;10874;49.452;11.050;2022-07-22T15:02:51;7.28;;;6.57;;
21426;SDS011;10874;49.452;11.050;2022-07-22T15:05:18;6.22;;;5.72;;
21426;SDS011;10874;49.452;11.050;2022-07-22T15:07:45;5.85;;;5.35;;
21426;SDS011;10874;49.452;11.050;2022-07-22T15:10:12;6.15;;;5.60;;